createdAt,value
2023-02-02T00:02:32.272Z,5.56
2023-02-02T00:05:34.866Z,5.63
2023-02-02T00:08:39.269Z,5.69
2023-02-02T00:11:41.911Z,5.72
2023-02-02T00:14:44.478Z,5.65
2023-02-02T00:17:48.442Z,5.64
2023-02-02T00:20:51.041Z,5.70
2023-02-02T00:23:53.883Z,5.68
2023-02-02T00:27:00.820Z,5.68
2023-02-02T00:30:03.469Z,5.65
2023-02-02T00:33:07.406Z,5.74
2023-02-02T00:36:10.205Z,5.74
2023-02-02T00:39:16.541Z,5.78
2023-02-02T00:42:19.145Z,5.79
2023-02-02T00:45:22.283Z,6.08
2023-02-02T00:48:26.658Z,6.01
2023-02-02T00:51:29.256Z,5.78
2023-02-02T00:54:32.353Z,5.94
2023-02-02T00:57:35.179Z,5.91
2023-02-02T01:00:47.028Z,5.85
2023-02-02T01:03:51.511Z,5.80
2023-02-02T01:06:54.087Z,5.89
2023-02-02T01:09:56.692Z,5.90
2023-02-02T01:12:59.294Z,6.02
2023-02-02T01:16:03.150Z,5.79
2023-02-02T01:19:07.142Z,5.70
2023-02-02T01:22:09.876Z,5.69
2023-02-02T01:25:12.639Z,5.71
2023-02-02T01:28:15.230Z,5.69
2023-02-02T01:31:19.815Z,5.78
2023-02-02T01:34:24.093Z,5.75
2023-02-02T01:37:26.716Z,5.78
2023-02-02T01:40:29.393Z,5.67
2023-02-02T01:43:52.954Z,5.65
2023-02-02T01:46:55.720Z,5.58
2023-02-02T01:50:00.086Z,5.61
2023-02-02T01:53:06.267Z,5.72
2023-02-02T01:56:11.484Z,5.67
2023-02-02T01:59:16.883Z,5.59
2023-02-02T02:02:19.764Z,5.62
2023-02-02T02:05:30.750Z,5.61
2023-02-02T02:08:39.254Z,5.62
2023-02-02T02:11:41.906Z,5.49
2023-02-02T02:15:04.568Z,5.67
2023-02-02T02:18:19.197Z,5.73
2023-02-02T02:22:05.431Z,5.70
2023-02-02T02:25:47.858Z,5.72
2023-02-02T02:29:20.978Z,5.69
2023-02-02T02:32:35.467Z,5.61
2023-02-02T02:35:44.002Z,5.62
2023-02-02T02:38:54.422Z,5.60
2023-02-02T02:42:00.251Z,5.69
2023-02-02T02:45:05.112Z,5.59
2023-02-02T02:48:10.299Z,5.54
2023-02-02T02:51:41.937Z,5.45
2023-02-02T02:54:49.746Z,5.54
2023-02-02T02:58:05.424Z,5.55
2023-02-02T03:01:14.286Z,5.50
2023-02-02T03:04:24.267Z,5.38
2023-02-02T03:07:30.678Z,5.51
2023-02-02T03:10:34.877Z,5.49
2023-02-02T03:13:37.874Z,5.50
2023-02-02T03:16:40.459Z,5.52
2023-02-02T03:19:44.399Z,5.57
2023-02-02T03:22:46.997Z,5.70
2023-02-02T03:25:50.088Z,5.69
2023-02-02T03:28:54.616Z,5.52
2023-02-02T03:31:57.311Z,5.68
2023-02-02T03:35:01.251Z,5.68
2023-02-02T03:38:04.243Z,5.80
2023-02-02T03:41:06.950Z,5.42
2023-02-02T03:44:09.510Z,5.21
2023-02-02T03:47:12.096Z,5.18
2023-02-02T03:50:16.396Z,5.35
2023-02-02T03:53:19.032Z,5.22
2023-02-02T03:56:21.635Z,5.31
2023-02-02T03:59:24.275Z,5.09
2023-02-02T04:02:26.940Z,5.18
2023-02-02T04:05:30.895Z,5.20
2023-02-02T04:08:34.085Z,5.23
2023-02-02T04:11:36.744Z,5.41
2023-02-02T04:14:39.398Z,5.37
2023-02-02T04:17:41.993Z,5.34
2023-02-02T04:20:45.914Z,5.34
2023-02-02T04:23:49.668Z,5.34
2023-02-02T04:26:52.501Z,5.31
2023-02-02T04:29:55.081Z,5.25
2023-02-02T04:32:57.661Z,5.37
2023-02-02T04:36:01.755Z,5.47
2023-02-02T04:39:04.713Z,5.52
2023-02-02T04:42:07.383Z,5.62
2023-02-02T04:45:10.684Z,5.37
2023-02-02T04:48:13.275Z,5.30
2023-02-02T04:51:18.669Z,5.37
2023-02-02T04:54:21.304Z,5.33
2023-02-02T04:57:23.926Z,5.19
2023-02-02T05:00:26.577Z,5.33
2023-02-02T05:03:29.175Z,5.37
2023-02-02T05:06:33.121Z,5.54
2023-02-02T05:09:35.707Z,5.49
2023-02-02T05:12:38.287Z,5.44
2023-02-02T05:15:40.856Z,5.37
2023-02-02T05:18:43.674Z,5.60
2023-02-02T05:21:50.954Z,5.45
2023-02-02T05:24:53.976Z,5.32
2023-02-02T05:27:56.555Z,5.51
2023-02-02T05:30:59.162Z,5.22
2023-02-02T05:34:01.916Z,5.31
2023-02-02T05:37:05.829Z,5.27
2023-02-02T05:40:09.704Z,5.08
2023-02-02T05:43:12.297Z,5.03
2023-02-02T05:46:14.985Z,5.04
2023-02-02T05:49:17.708Z,4.90
2023-02-02T05:52:24.801Z,5.12
2023-02-02T05:55:27.448Z,5.11
2023-02-02T05:58:30.121Z,5.00
2023-02-02T06:01:32.699Z,5.00
2023-02-02T06:04:35.314Z,5.02
2023-02-02T06:07:39.273Z,5.24
2023-02-02T06:10:42.431Z,4.97
2023-02-02T06:13:46.096Z,5.03
2023-02-02T06:16:48.859Z,5.16
2023-02-02T06:19:51.436Z,5.13
2023-02-02T06:22:55.608Z,5.17
2023-02-02T06:25:58.341Z,5.09
2023-02-02T06:29:00.906Z,5.11
2023-02-02T06:32:03.580Z,5.16
2023-02-02T06:35:07.279Z,5.21
2023-02-02T06:38:11.869Z,5.30
2023-02-02T06:41:14.460Z,5.33
2023-02-02T06:44:19.135Z,5.27
2023-02-02T06:47:21.737Z,5.24
2023-02-02T06:50:24.362Z,5.26
2023-02-02T06:53:28.364Z,5.43
2023-02-02T06:56:30.968Z,5.26
2023-02-02T06:59:33.550Z,5.34
2023-02-02T07:02:36.604Z,5.34
2023-02-02T07:05:39.323Z,5.31
2023-02-02T07:08:44.364Z,5.46
2023-02-02T07:11:46.966Z,5.22
2023-02-02T07:14:49.777Z,5.32
2023-02-02T07:17:52.349Z,5.27
2023-02-02T07:20:54.965Z,5.17
2023-02-02T07:23:58.889Z,5.28
2023-02-02T07:27:01.504Z,5.34
2023-02-02T07:30:04.890Z,5.41
2023-02-02T07:33:07.566Z,5.51
2023-02-02T07:36:10.790Z,5.52
2023-02-02T07:39:14.937Z,5.50
2023-02-02T07:42:17.524Z,5.41
2023-02-02T07:45:27.520Z,5.42
2023-02-02T07:48:30.828Z,5.53
2023-02-02T07:51:33.434Z,5.46
2023-02-02T07:54:37.397Z,5.33
2023-02-02T07:57:39.984Z,5.44
2023-02-02T08:00:42.633Z,5.47
2023-02-02T08:03:45.304Z,5.51
2023-02-02T08:06:48.263Z,5.82
2023-02-02T08:09:52.715Z,5.94
2023-02-02T08:12:55.381Z,5.84
2023-02-02T08:15:58.856Z,5.99
2023-02-02T08:19:01.898Z,6.12
2023-02-02T08:22:04.484Z,5.79
2023-02-02T08:25:09.818Z,5.98
2023-02-02T08:28:12.365Z,6.03
2023-02-02T08:31:17.084Z,6.07
2023-02-02T08:34:19.743Z,5.78
2023-02-02T08:37:22.334Z,5.95
2023-02-02T08:40:26.399Z,6.22
2023-02-02T08:43:29.977Z,6.18
2023-02-02T08:46:32.615Z,6.30
2023-02-02T08:49:35.231Z,6.35
2023-02-02T08:52:37.808Z,5.77
2023-02-02T08:55:41.731Z,5.94
2023-02-02T08:58:46.472Z,6.07
2023-02-02T09:01:49.133Z,6.20
2023-02-02T09:04:51.756Z,6.34
2023-02-02T09:07:54.315Z,6.23
2023-02-02T09:11:03.271Z,6.25
2023-02-02T09:14:07.318Z,6.54
2023-02-02T09:17:09.933Z,6.64
2023-02-02T09:20:13.688Z,6.76
2023-02-02T09:23:16.262Z,6.75
2023-02-02T09:26:21.861Z,6.72
2023-02-02T09:29:24.507Z,6.91
2023-02-02T09:32:27.086Z,7.02
2023-02-02T09:35:29.674Z,7.14
2023-02-02T09:38:32.239Z,7.09
2023-02-02T09:42:13.250Z,7.13
2023-02-02T09:45:27.035Z,7.20
2023-02-02T09:48:39.859Z,7.11
2023-02-02T09:51:46.032Z,7.10
2023-02-02T09:54:51.585Z,7.18
2023-02-02T09:57:58.031Z,7.12
2023-02-02T10:01:07.730Z,7.38
2023-02-02T10:04:18.776Z,7.50
2023-02-02T10:07:27.486Z,7.64
2023-02-02T10:10:35.354Z,7.57
2023-02-02T10:13:43.469Z,7.82
2023-02-02T10:16:49.341Z,7.71
2023-02-02T10:19:56.611Z,7.77
2023-02-02T10:23:05.170Z,7.83
2023-02-02T10:26:17.534Z,8.42
2023-02-02T10:29:48.008Z,8.03
2023-02-02T10:33:03.726Z,7.98
2023-02-02T10:36:17.918Z,8.54
2023-02-02T10:39:31.806Z,8.82
2023-02-02T10:43:06.666Z,8.23
2023-02-02T10:46:16.017Z,8.05
2023-02-02T10:49:27.864Z,8.19
2023-02-02T10:52:33.657Z,8.22
2023-02-02T10:55:42.285Z,8.55
2023-02-02T10:58:51.579Z,8.84
2023-02-02T11:01:54.293Z,9.49
2023-02-02T11:05:15.629Z,9.48
2023-02-02T11:08:20.193Z,9.23
2023-02-02T11:11:27.071Z,8.73
2023-02-02T11:14:45.375Z,8.55
2023-02-02T11:17:48.580Z,8.49
2023-02-02T11:20:52.545Z,8.41
2023-02-02T11:23:57.755Z,8.14
2023-02-02T11:27:02.839Z,8.12
2023-02-02T11:30:20.188Z,8.34
2023-02-02T11:33:29.373Z,8.48
2023-02-02T11:36:33.304Z,9.06
2023-02-02T11:39:35.878Z,9.84
2023-02-02T11:42:38.560Z,11.72
2023-02-02T11:45:43.713Z,12.05
2023-02-02T11:48:51.988Z,12.01
2023-02-02T11:52:00.736Z,12.32
2023-02-02T11:55:15.621Z,11.71
2023-02-02T11:58:27.297Z,10.95
2023-02-02T12:01:32.084Z,10.33
2023-02-02T12:04:34.930Z,10.10
2023-02-02T12:07:39.167Z,9.88
2023-02-02T12:10:47.457Z,9.51
2023-02-02T12:14:06.863Z,9.55
2023-02-02T12:17:22.653Z,9.57
2023-02-02T12:20:37.528Z,9.69
2023-02-02T12:23:54.099Z,10.13
2023-02-02T12:27:09.148Z,10.28
2023-02-02T12:30:28.782Z,10.37
2023-02-02T12:33:39.635Z,10.16
2023-02-02T12:36:50.837Z,10.22
2023-02-02T12:40:05.838Z,10.41
2023-02-02T12:43:22.152Z,10.80
2023-02-02T12:46:41.199Z,10.44
2023-02-02T12:50:01.982Z,10.11
2023-02-02T12:53:19.560Z,10.02
2023-02-02T12:56:33.774Z,9.68
2023-02-02T13:00:01.616Z,9.46
2023-02-02T13:03:19.070Z,9.32
2023-02-02T13:06:42.209Z,10.52
2023-02-02T13:09:50.561Z,11.35
2023-02-02T13:12:59.804Z,12.21
2023-02-02T13:16:08.573Z,12.00
2023-02-02T13:19:17.189Z,13.12
2023-02-02T13:22:25.301Z,12.35
2023-02-02T13:25:31.507Z,12.28
2023-02-02T13:28:42.347Z,13.83
2023-02-02T13:31:49.275Z,14.03
2023-02-02T13:34:56.717Z,13.75
2023-02-02T13:38:06.935Z,12.48
2023-02-02T13:41:13.567Z,12.02
2023-02-02T13:44:25.789Z,11.00
2023-02-02T13:47:37.428Z,10.73
2023-02-02T13:50:53.917Z,10.54
2023-02-02T13:54:19.439Z,10.25
2023-02-02T13:57:52.918Z,11.13
2023-02-02T14:01:01.760Z,10.76
2023-02-02T14:04:05.522Z,11.13
2023-02-02T14:10:24.686Z,10.48
2023-02-02T14:13:51.305Z,10.55
2023-02-02T14:16:56.647Z,11.16
2023-02-02T14:20:01.125Z,11.47
2023-02-02T14:23:03.847Z,11.54
2023-02-02T14:26:09.203Z,11.77
2023-02-02T14:29:39.435Z,11.69
2023-02-02T14:32:44.054Z,11.56
2023-02-02T14:36:03.926Z,11.19
2023-02-02T14:39:19.071Z,11.12
2023-02-02T14:42:53.999Z,10.77
2023-02-02T14:46:24.847Z,10.43
2023-02-02T14:49:35.673Z,10.38
2023-02-02T14:52:38.421Z,10.22
2023-02-02T14:55:53.898Z,10.22
2023-02-02T14:59:01.192Z,9.78
2023-02-02T15:02:15.369Z,9.70
2023-02-02T15:05:46.445Z,9.50
2023-02-02T15:09:27.746Z,8.67
2023-02-02T15:12:39.434Z,8.80
2023-02-02T15:15:44.027Z,8.72
2023-02-02T15:18:50.173Z,8.74
2023-02-02T15:21:58.304Z,8.66
2023-02-02T15:25:07.875Z,8.74
2023-02-02T15:28:19.053Z,8.60
2023-02-02T15:31:30.359Z,8.33
2023-02-02T15:34:39.880Z,8.49
2023-02-02T15:37:48.236Z,8.56
2023-02-02T15:40:51.436Z,8.50
2023-02-02T15:43:54.326Z,8.65
2023-02-02T15:46:58.496Z,8.49
2023-02-02T15:50:01.298Z,8.55
2023-02-02T15:53:05.764Z,8.37
2023-02-02T15:56:20.512Z,8.46
2023-02-02T15:59:25.738Z,8.42
2023-02-02T16:02:37.286Z,8.35
2023-02-02T16:05:47.602Z,8.21
2023-02-02T16:08:51.855Z,8.14
2023-02-02T16:11:54.764Z,8.14
2023-02-02T16:14:57.591Z,7.97
2023-02-02T16:18:01.416Z,7.96
2023-02-02T16:21:10.756Z,7.86
2023-02-02T16:24:17.985Z,7.78
2023-02-02T16:27:23.391Z,7.74
2023-02-02T16:30:30.236Z,7.73
2023-02-02T16:33:38.909Z,7.63
2023-02-02T16:36:41.523Z,7.63
2023-02-02T16:39:45.688Z,7.54
2023-02-02T16:42:48.389Z,7.47
2023-02-02T16:45:53.365Z,7.37
2023-02-02T16:49:00.390Z,7.43
2023-02-02T16:52:15.970Z,7.36
2023-02-02T16:55:21.832Z,7.32
2023-02-02T16:58:26.443Z,7.19
2023-02-02T17:01:36.417Z,7.12
2023-02-02T17:04:39.184Z,7.00
2023-02-02T17:07:48.999Z,7.04
2023-02-02T17:11:05.668Z,6.95
2023-02-02T17:14:20.183Z,6.87
2023-02-02T17:17:22.813Z,6.86
2023-02-02T17:20:26.050Z,6.67
2023-02-02T17:23:30.319Z,6.59
2023-02-02T17:26:34.396Z,6.61
2023-02-02T17:29:37.102Z,6.59
2023-02-02T17:32:39.789Z,6.52
2023-02-02T17:35:53.840Z,6.54
2023-02-02T17:38:57.854Z,6.51
2023-02-02T17:42:01.880Z,6.46
2023-02-02T17:45:04.877Z,6.45
2023-02-02T17:48:07.800Z,6.43
2023-02-02T17:51:15.972Z,6.39
2023-02-02T17:54:18.663Z,6.35
2023-02-02T17:57:22.681Z,6.37
2023-02-02T18:00:29.941Z,6.41
2023-02-02T18:03:36.003Z,6.44
2023-02-02T18:06:38.913Z,6.53
2023-02-02T18:09:41.591Z,6.55
2023-02-02T18:12:45.907Z,6.59
2023-02-02T18:15:49.769Z,6.71
2023-02-02T18:18:53.602Z,6.76
2023-02-02T18:21:56.307Z,6.75
2023-02-02T18:24:59.555Z,6.76
2023-02-02T18:28:03.622Z,6.74
2023-02-02T18:31:11.026Z,6.72
2023-02-02T18:34:13.729Z,6.78
2023-02-02T18:37:16.366Z,6.84
2023-02-02T18:40:19.507Z,6.93
2023-02-02T18:43:23.522Z,6.72
2023-02-02T18:46:26.891Z,6.90
2023-02-02T18:49:29.662Z,6.98
2023-02-02T18:52:33.137Z,6.87
2023-02-02T18:55:38.225Z,6.92
2023-02-02T18:58:42.466Z,7.00
2023-02-02T19:01:45.267Z,7.08
2023-02-02T19:05:01.942Z,7.03
2023-02-02T19:08:05.821Z,6.50
2023-02-02T19:11:15.288Z,6.93
2023-02-02T19:14:24.324Z,6.98
2023-02-02T19:17:28.003Z,7.06
2023-02-02T19:20:31.722Z,7.12
2023-02-02T19:23:37.329Z,7.03
2023-02-02T19:26:45.569Z,7.07
2023-02-02T19:29:51.974Z,7.02
2023-02-02T19:32:54.682Z,7.03
2023-02-02T19:35:57.348Z,6.81
2023-02-02T19:39:13.589Z,6.94
2023-02-02T19:42:16.362Z,7.08
2023-02-02T19:45:24.902Z,7.09
2023-02-02T19:48:32.059Z,7.05
2023-02-02T19:51:42.780Z,7.03
2023-02-02T19:54:47.846Z,7.00
2023-02-02T19:57:51.557Z,7.09
2023-02-02T20:00:57.918Z,7.04
2023-02-02T20:04:03.950Z,6.59
2023-02-02T20:07:13.411Z,6.15
2023-02-02T20:10:22.973Z,6.35
2023-02-02T20:13:34.935Z,6.32
2023-02-02T20:16:42.981Z,6.40
2023-02-02T20:19:47.056Z,6.27
2023-02-02T20:22:49.707Z,6.17
2023-02-02T20:25:52.411Z,6.08
2023-02-02T20:28:56.651Z,5.85
2023-02-02T20:32:00.735Z,5.86
2023-02-02T20:35:20.060Z,6.10
2023-02-02T20:38:25.629Z,5.81
2023-02-02T20:41:28.370Z,5.65
2023-02-02T20:44:32.504Z,5.91
2023-02-02T20:47:36.534Z,5.93
2023-02-02T20:50:39.484Z,5.63
2023-02-02T20:53:42.197Z,5.62
2023-02-02T20:56:44.883Z,6.00
2023-02-02T20:59:47.558Z,6.03
2023-02-02T21:02:52.060Z,6.01
2023-02-02T21:05:54.764Z,6.14
2023-02-02T21:08:57.427Z,5.96
2023-02-02T21:12:00.111Z,6.31
2023-02-02T21:15:03.910Z,6.36
2023-02-02T21:18:08.027Z,6.11
2023-02-02T21:21:10.708Z,6.07
2023-02-02T21:24:13.393Z,5.82
2023-02-02T21:27:16.123Z,5.87
2023-02-02T21:30:19.142Z,6.12
2023-02-02T21:33:23.207Z,6.02
2023-02-02T21:36:34.708Z,6.17
2023-02-02T21:39:38.691Z,6.26
2023-02-02T21:42:48.324Z,6.11
2023-02-02T21:45:52.907Z,5.79
2023-02-02T21:48:56.981Z,6.13
2023-02-02T21:52:03.474Z,6.02
2023-02-02T21:55:29.500Z,5.91
2023-02-02T21:58:35.187Z,5.99
2023-02-02T22:01:40.148Z,5.99
2023-02-02T22:04:44.261Z,5.85
2023-02-02T22:07:49.558Z,5.67
2023-02-02T22:10:52.318Z,5.35
2023-02-02T22:13:55.522Z,5.58
2023-02-02T22:16:59.803Z,5.59
2023-02-02T22:20:18.661Z,5.55
2023-02-02T22:23:23.783Z,5.62
2023-02-02T22:26:34.088Z,5.72
2023-02-02T22:29:36.683Z,5.77
2023-02-02T22:32:39.303Z,5.42
2023-02-02T22:35:44.036Z,5.39
2023-02-02T22:38:46.618Z,5.43
2023-02-02T22:41:49.199Z,5.05
2023-02-02T22:44:51.779Z,5.59
2023-02-02T22:47:54.875Z,5.53
2023-02-02T22:50:58.808Z,5.41
2023-02-02T22:54:01.392Z,5.72
2023-02-02T22:57:04.038Z,5.84
2023-02-02T23:00:10.451Z,5.44
2023-02-02T23:03:13.086Z,5.82
2023-02-02T23:06:17.056Z,5.57
2023-02-02T23:09:19.639Z,5.26
2023-02-02T23:12:22.304Z,5.27
2023-02-02T23:15:25.258Z,5.33
2023-02-02T23:18:27.862Z,5.60
2023-02-02T23:21:31.844Z,5.68
2023-02-02T23:24:34.442Z,5.88
2023-02-02T23:27:37.042Z,5.54
2023-02-02T23:30:39.648Z,5.12
2023-02-02T23:33:42.249Z,5.47
2023-02-02T23:36:46.170Z,5.67
2023-02-02T23:39:48.760Z,5.53
2023-02-02T23:42:51.391Z,5.54
2023-02-02T23:45:54.031Z,5.71
2023-02-02T23:48:57.226Z,5.76
2023-02-02T23:52:01.386Z,5.48
2023-02-02T23:55:05.046Z,5.65
2023-02-02T23:58:07.814Z,5.40
